sensor_id;sensor_type;location;lat;lon;timestamp;temperature;humidity
14252;DHT22;7210;51.502;10.722;2022-11-22T00:00:34;0.20;99.90
14252;DHT22;7210;51.502;10.722;2022-11-22T00:03:01;0.30;99.90
14252;DHT22;7210;51.502;10.722;2022-11-22T00:05:29;0.20;99.90
14252;DHT22;7210;51.502;10.722;2022-11-22T00:08:03;0.20;99.90
14252;DHT22;7210;51.502;10.722;2022-11-22T00:10:33;0.20;99.90
14252;DHT22;7210;51.502;10.722;2022-11-22T00:13:01;0.20;99.90
14252;DHT22;7210;51.502;10.722;2022-11-22T00:15:29;0.20;99.90
14252;DHT22;7210;51.502;10.722;2022-11-22T00:17:56;0.20;99.90
14252;DHT22;7210;51.502;10.722;2022-11-22T00:20:24;0.20;99.90
14252;DHT22;7210;51.502;10.722;2022-11-22T00:22:51;0.20;99.90
14252;DHT22;7210;51.502;10.722;2022-11-22T00:25:21;0.20;99.90
14252;DHT22;7210;51.502;10.722;2022-11-22T00:27:50;0.20;99.90
14252;DHT22;7210;51.502;10.722;2022-11-22T00:30:17;0.10;99.90
14252;DHT22;7210;51.502;10.722;2022-11-22T00:32:45;0.20;99.90
14252;DHT22;7210;51.502;10.722;2022-11-22T00:35:12;0.20;99.90
14252;DHT22;7210;51.502;10.722;2022-11-22T00:37:39;0.20;99.90
14252;DHT22;7210;51.502;10.722;2022-11-22T00:40:08;0.10;98.20
14252;DHT22;7210;51.502;10.722;2022-11-22T00:42:35;0.20;99.90
14252;DHT22;7210;51.502;10.722;2022-11-22T00:45:05;0.20;99.90
14252;DHT22;7210;51.502;10.722;2022-11-22T00:47:33;0.20;99.90
14252;DHT22;7210;51.502;10.722;2022-11-22T00:50:01;0.20;99.90
14252;DHT22;7210;51.502;10.722;2022-11-22T00:52:28;0.20;99.90
14252;DHT22;7210;51.502;10.722;2022-11-22T00:54:55;0.20;99.90
14252;DHT22;7210;51.502;10.722;2022-11-22T00:57:23;0.30;99.90
14252;DHT22;7210;51.502;10.722;2022-11-22T00:59:51;0.30;99.90
14252;DHT22;7210;51.502;10.722;2022-11-22T01:02:20;0.20;99.90
14252;DHT22;7210;51.502;10.722;2022-11-22T01:04:51;0.20;98.40
14252;DHT22;7210;51.502;10.722;2022-11-22T01:07:18;0.30;99.90
14252;DHT22;7210;51.502;10.722;2022-11-22T01:09:46;0.30;99.20
14252;DHT22;7210;51.502;10.722;2022-11-22T01:12:13;0.30;99.90
14252;DHT22;7210;51.502;10.722;2022-11-22T01:14:40;0.30;99.90
14252;DHT22;7210;51.502;10.722;2022-11-22T01:17:07;0.30;99.90
14252;DHT22;7210;51.502;10.722;2022-11-22T01:19:36;0.30;99.90
14252;DHT22;7210;51.502;10.722;2022-11-22T01:22:09;0.30;99.90
14252;DHT22;7210;51.502;10.722;2022-11-22T01:24:36;0.30;99.50
14252;DHT22;7210;51.502;10.722;2022-11-22T01:27:04;0.30;99.90
14252;DHT22;7210;51.502;10.722;2022-11-22T01:29:31;0.30;99.90
14252;DHT22;7210;51.502;10.722;2022-11-22T01:32:03;0.20;98.00
14252;DHT22;7210;51.502;10.722;2022-11-22T01:34:32;0.30;99.20
14252;DHT22;7210;51.502;10.722;2022-11-22T01:37:01;0.30;95.90
14252;DHT22;7210;51.502;10.722;2022-11-22T01:39:28;0.30;99.20
14252;DHT22;7210;51.502;10.722;2022-11-22T01:41:56;0.30;98.00
14252;DHT22;7210;51.502;10.722;2022-11-22T01:44:25;0.30;99.60
14252;DHT22;7210;51.502;10.722;2022-11-22T01:46:59;0.30;96.50
14252;DHT22;7210;51.502;10.722;2022-11-22T01:49:32;0.30;97.20
14252;DHT22;7210;51.502;10.722;2022-11-22T01:52:08;0.30;98.70
14252;DHT22;7210;51.502;10.722;2022-11-22T01:54:50;0.30;99.90
14252;DHT22;7210;51.502;10.722;2022-11-22T01:57:26;0.30;97.20
14252;DHT22;7210;51.502;10.722;2022-11-22T01:59:59;0.30;99.90
14252;DHT22;7210;51.502;10.722;2022-11-22T02:02:32;0.30;99.90
14252;DHT22;7210;51.502;10.722;2022-11-22T02:05:03;0.30;99.90
14252;DHT22;7210;51.502;10.722;2022-11-22T02:07:37;0.30;99.90
14252;DHT22;7210;51.502;10.722;2022-11-22T02:10:10;0.30;99.90
14252;DHT22;7210;51.502;10.722;2022-11-22T02:12:39;0.30;99.90
14252;DHT22;7210;51.502;10.722;2022-11-22T02:15:09;0.40;99.90
14252;DHT22;7210;51.502;10.722;2022-11-22T02:17:37;0.30;99.90
14252;DHT22;7210;51.502;10.722;2022-11-22T02:20:06;0.30;99.90
14252;DHT22;7210;51.502;10.722;2022-11-22T02:22:41;0.40;99.90
14252;DHT22;7210;51.502;10.722;2022-11-22T02:25:20;0.30;99.90
14252;DHT22;7210;51.502;10.722;2022-11-22T02:27:54;0.40;99.90
14252;DHT22;7210;51.502;10.722;2022-11-22T02:30:22;0.40;99.90
14252;DHT22;7210;51.502;10.722;2022-11-22T02:32:49;0.40;99.90
14252;DHT22;7210;51.502;10.722;2022-11-22T02:35:18;0.30;99.90
14252;DHT22;7210;51.502;10.722;2022-11-22T02:37:50;0.40;99.90
14252;DHT22;7210;51.502;10.722;2022-11-22T02:40:20;0.40;99.90
14252;DHT22;7210;51.502;10.722;2022-11-22T02:42:53;0.40;99.90
14252;DHT22;7210;51.502;10.722;2022-11-22T02:45:25;0.40;99.90
14252;DHT22;7210;51.502;10.722;2022-11-22T02:47:53;0.30;99.90
14252;DHT22;7210;51.502;10.722;2022-11-22T02:50:30;0.40;99.90
14252;DHT22;7210;51.502;10.722;2022-11-22T02:52:57;0.40;99.90
14252;DHT22;7210;51.502;10.722;2022-11-22T02:55:25;0.40;99.90
14252;DHT22;7210;51.502;10.722;2022-11-22T02:57:52;0.40;99.90
14252;DHT22;7210;51.502;10.722;2022-11-22T03:00:21;0.40;99.90
14252;DHT22;7210;51.502;10.722;2022-11-22T03:05:39;0.40;99.90
14252;DHT22;7210;51.502;10.722;2022-11-22T03:08:06;0.40;99.90
14252;DHT22;7210;51.502;10.722;2022-11-22T03:10:34;0.40;99.90
14252;DHT22;7210;51.502;10.722;2022-11-22T03:16:24;0.50;99.90
14252;DHT22;7210;51.502;10.722;2022-11-22T03:18:51;0.40;99.90
14252;DHT22;7210;51.502;10.722;2022-11-22T03:21:19;0.40;99.90
14252;DHT22;7210;51.502;10.722;2022-11-22T03:23:46;0.40;99.90
14252;DHT22;7210;51.502;10.722;2022-11-22T03:26:13;0.50;99.90
14252;DHT22;7210;51.502;10.722;2022-11-22T03:28:41;0.50;99.90
14252;DHT22;7210;51.502;10.722;2022-11-22T03:31:08;0.50;99.90
14252;DHT22;7210;51.502;10.722;2022-11-22T03:33:36;0.50;99.90
14252;DHT22;7210;51.502;10.722;2022-11-22T03:36:04;0.50;99.90
14252;DHT22;7210;51.502;10.722;2022-11-22T03:38:33;0.50;99.90
14252;DHT22;7210;51.502;10.722;2022-11-22T03:41:01;0.40;99.90
14252;DHT22;7210;51.502;10.722;2022-11-22T03:43:29;0.40;99.90
14252;DHT22;7210;51.502;10.722;2022-11-22T03:45:56;0.40;99.90
14252;DHT22;7210;51.502;10.722;2022-11-22T03:48:23;0.30;99.90
14252;DHT22;7210;51.502;10.722;2022-11-22T03:50:52;0.40;99.90
14252;DHT22;7210;51.502;10.722;2022-11-22T03:53:23;0.40;99.90
14252;DHT22;7210;51.502;10.722;2022-11-22T03:55:50;0.40;99.90
14252;DHT22;7210;51.502;10.722;2022-11-22T03:58:17;0.40;99.90
14252;DHT22;7210;51.502;10.722;2022-11-22T04:00:45;0.30;99.90
14252;DHT22;7210;51.502;10.722;2022-11-22T04:03:12;0.30;99.90
14252;DHT22;7210;51.502;10.722;2022-11-22T04:05:39;0.30;99.90
14252;DHT22;7210;51.502;10.722;2022-11-22T04:08:08;0.30;99.90
14252;DHT22;7210;51.502;10.722;2022-11-22T04:10:35;0.30;99.90
14252;DHT22;7210;51.502;10.722;2022-11-22T04:13:02;0.30;99.90
14252;DHT22;7210;51.502;10.722;2022-11-22T04:15:30;0.40;99.90
14252;DHT22;7210;51.502;10.722;2022-11-22T04:17:56;0.30;99.90
14252;DHT22;7210;51.502;10.722;2022-11-22T04:20:25;0.40;99.90
14252;DHT22;7210;51.502;10.722;2022-11-22T04:23:14;0.40;99.90
14252;DHT22;7210;51.502;10.722;2022-11-22T04:25:48;0.40;99.90
14252;DHT22;7210;51.502;10.722;2022-11-22T04:28:18;0.50;99.90
14252;DHT22;7210;51.502;10.722;2022-11-22T04:30:47;0.40;99.90
14252;DHT22;7210;51.502;10.722;2022-11-22T04:33:32;0.40;99.90
14252;DHT22;7210;51.502;10.722;2022-11-22T04:36:00;0.40;99.90
14252;DHT22;7210;51.502;10.722;2022-11-22T04:38:29;0.40;99.90
14252;DHT22;7210;51.502;10.722;2022-11-22T04:40:56;0.50;99.90
14252;DHT22;7210;51.502;10.722;2022-11-22T04:43:25;0.50;99.90
14252;DHT22;7210;51.502;10.722;2022-11-22T04:46:12;0.50;99.90
14252;DHT22;7210;51.502;10.722;2022-11-22T04:48:40;0.50;99.90
14252;DHT22;7210;51.502;10.722;2022-11-22T04:51:10;0.50;99.90
14252;DHT22;7210;51.502;10.722;2022-11-22T04:53:59;0.60;99.90
14252;DHT22;7210;51.502;10.722;2022-11-22T04:56:26;0.50;99.90
14252;DHT22;7210;51.502;10.722;2022-11-22T04:58:54;0.50;99.90
14252;DHT22;7210;51.502;10.722;2022-11-22T05:01:21;0.40;99.90
14252;DHT22;7210;51.502;10.722;2022-11-22T05:03:48;0.50;99.90
14252;DHT22;7210;51.502;10.722;2022-11-22T05:06:15;0.40;99.90
14252;DHT22;7210;51.502;10.722;2022-11-22T05:08:43;0.50;99.90
14252;DHT22;7210;51.502;10.722;2022-11-22T05:11:11;0.50;99.90
14252;DHT22;7210;51.502;10.722;2022-11-22T05:13:40;0.60;99.90
14252;DHT22;7210;51.502;10.722;2022-11-22T05:16:09;0.60;99.90
14252;DHT22;7210;51.502;10.722;2022-11-22T05:18:38;0.50;99.90
14252;DHT22;7210;51.502;10.722;2022-11-22T05:21:06;0.50;99.90
14252;DHT22;7210;51.502;10.722;2022-11-22T05:23:35;0.50;99.90
14252;DHT22;7210;51.502;10.722;2022-11-22T05:26:32;0.50;99.90
14252;DHT22;7210;51.502;10.722;2022-11-22T05:29:03;0.50;99.90
14252;DHT22;7210;51.502;10.722;2022-11-22T05:31:36;0.50;99.90
14252;DHT22;7210;51.502;10.722;2022-11-22T05:34:05;0.50;99.90
14252;DHT22;7210;51.502;10.722;2022-11-22T05:36:33;0.50;99.90
14252;DHT22;7210;51.502;10.722;2022-11-22T05:39:01;0.50;99.90
14252;DHT22;7210;51.502;10.722;2022-11-22T05:41:30;0.50;99.90
14252;DHT22;7210;51.502;10.722;2022-11-22T05:43:59;0.50;99.90
14252;DHT22;7210;51.502;10.722;2022-11-22T05:46:28;0.50;99.90
14252;DHT22;7210;51.502;10.722;2022-11-22T05:48:57;0.50;99.90
14252;DHT22;7210;51.502;10.722;2022-11-22T05:51:25;0.50;99.90
14252;DHT22;7210;51.502;10.722;2022-11-22T05:53:59;0.60;99.90
14252;DHT22;7210;51.502;10.722;2022-11-22T05:56:26;0.70;99.90
14252;DHT22;7210;51.502;10.722;2022-11-22T05:58:55;0.60;99.90
14252;DHT22;7210;51.502;10.722;2022-11-22T06:01:23;0.60;99.90
14252;DHT22;7210;51.502;10.722;2022-11-22T06:03:51;0.60;99.90
14252;DHT22;7210;51.502;10.722;2022-11-22T06:06:20;0.60;99.90
14252;DHT22;7210;51.502;10.722;2022-11-22T06:08:48;0.60;99.90
14252;DHT22;7210;51.502;10.722;2022-11-22T06:11:18;0.60;99.90
14252;DHT22;7210;51.502;10.722;2022-11-22T06:13:49;0.60;99.90
14252;DHT22;7210;51.502;10.722;2022-11-22T06:16:23;0.60;99.90
14252;DHT22;7210;51.502;10.722;2022-11-22T06:18:53;0.60;99.90
14252;DHT22;7210;51.502;10.722;2022-11-22T06:21:22;0.60;99.90
14252;DHT22;7210;51.502;10.722;2022-11-22T06:23:54;0.60;99.90
14252;DHT22;7210;51.502;10.722;2022-11-22T06:26:23;0.60;99.90
14252;DHT22;7210;51.502;10.722;2022-11-22T06:28:53;0.60;99.90
14252;DHT22;7210;51.502;10.722;2022-11-22T06:31:24;0.50;99.90
14252;DHT22;7210;51.502;10.722;2022-11-22T06:33:54;0.50;99.90
14252;DHT22;7210;51.502;10.722;2022-11-22T06:36:25;0.50;99.90
14252;DHT22;7210;51.502;10.722;2022-11-22T06:38:54;0.60;99.90
14252;DHT22;7210;51.502;10.722;2022-11-22T06:41:25;0.60;99.90
14252;DHT22;7210;51.502;10.722;2022-11-22T06:43:54;0.60;99.90
14252;DHT22;7210;51.502;10.722;2022-11-22T06:46:25;0.60;99.90
14252;DHT22;7210;51.502;10.722;2022-11-22T06:48:53;0.70;99.90
14252;DHT22;7210;51.502;10.722;2022-11-22T06:51:22;0.70;99.90
14252;DHT22;7210;51.502;10.722;2022-11-22T06:53:50;0.80;99.90
14252;DHT22;7210;51.502;10.722;2022-11-22T06:56:21;0.70;99.90
14252;DHT22;7210;51.502;10.722;2022-11-22T06:58:51;0.70;99.90
14252;DHT22;7210;51.502;10.722;2022-11-22T07:01:21;0.70;99.90
14252;DHT22;7210;51.502;10.722;2022-11-22T07:03:52;0.70;99.90
14252;DHT22;7210;51.502;10.722;2022-11-22T07:06:23;0.70;99.90
14252;DHT22;7210;51.502;10.722;2022-11-22T07:08:51;0.70;99.90
14252;DHT22;7210;51.502;10.722;2022-11-22T07:11:20;0.70;99.90
14252;DHT22;7210;51.502;10.722;2022-11-22T07:13:53;0.70;99.90
14252;DHT22;7210;51.502;10.722;2022-11-22T07:16:22;0.70;98.50
14252;DHT22;7210;51.502;10.722;2022-11-22T07:18:51;0.70;99.90
14252;DHT22;7210;51.502;10.722;2022-11-22T07:21:19;0.80;99.90
14252;DHT22;7210;51.502;10.722;2022-11-22T07:23:50;0.80;99.90
14252;DHT22;7210;51.502;10.722;2022-11-22T07:26:20;0.80;98.90
14252;DHT22;7210;51.502;10.722;2022-11-22T07:28:48;0.80;98.90
14252;DHT22;7210;51.502;10.722;2022-11-22T07:31:17;0.90;94.70
14252;DHT22;7210;51.502;10.722;2022-11-22T07:33:45;0.90;95.50
14252;DHT22;7210;51.502;10.722;2022-11-22T07:36:15;0.90;97.40
14252;DHT22;7210;51.502;10.722;2022-11-22T07:38:44;0.90;98.30
14252;DHT22;7210;51.502;10.722;2022-11-22T07:41:12;0.90;96.50
14252;DHT22;7210;51.502;10.722;2022-11-22T07:43:41;0.90;99.90
14252;DHT22;7210;51.502;10.722;2022-11-22T07:46:17;0.90;99.90
14252;DHT22;7210;51.502;10.722;2022-11-22T07:48:53;0.90;97.70
14252;DHT22;7210;51.502;10.722;2022-11-22T07:51:21;1.00;96.60
14252;DHT22;7210;51.502;10.722;2022-11-22T07:53:49;1.00;99.90
14252;DHT22;7210;51.502;10.722;2022-11-22T07:56:17;1.00;99.50
14252;DHT22;7210;51.502;10.722;2022-11-22T07:58:45;1.00;99.20
14252;DHT22;7210;51.502;10.722;2022-11-22T08:01:14;1.10;98.00
14252;DHT22;7210;51.502;10.722;2022-11-22T08:03:42;1.10;97.00
14252;DHT22;7210;51.502;10.722;2022-11-22T08:06:11;1.20;99.90
14252;DHT22;7210;51.502;10.722;2022-11-22T08:08:41;1.20;99.30
14252;DHT22;7210;51.502;10.722;2022-11-22T08:11:09;1.20;99.90
14252;DHT22;7210;51.502;10.722;2022-11-22T08:13:38;1.20;99.90
14252;DHT22;7210;51.502;10.722;2022-11-22T08:16:07;1.20;99.90
14252;DHT22;7210;51.502;10.722;2022-11-22T08:18:37;1.20;99.90
14252;DHT22;7210;51.502;10.722;2022-11-22T08:21:07;1.30;99.90
14252;DHT22;7210;51.502;10.722;2022-11-22T08:23:44;1.30;99.90
14252;DHT22;7210;51.502;10.722;2022-11-22T08:26:14;1.30;99.90
14252;DHT22;7210;51.502;10.722;2022-11-22T08:28:43;1.40;99.90
14252;DHT22;7210;51.502;10.722;2022-11-22T08:31:12;1.30;99.90
14252;DHT22;7210;51.502;10.722;2022-11-22T08:33:43;1.40;99.90
14252;DHT22;7210;51.502;10.722;2022-11-22T08:36:11;1.40;99.90
14252;DHT22;7210;51.502;10.722;2022-11-22T08:38:39;1.50;99.90
14252;DHT22;7210;51.502;10.722;2022-11-22T08:41:09;1.50;99.90
14252;DHT22;7210;51.502;10.722;2022-11-22T08:43:36;1.60;99.90
14252;DHT22;7210;51.502;10.722;2022-11-22T08:46:04;1.60;99.90
14252;DHT22;7210;51.502;10.722;2022-11-22T08:48:33;1.70;99.90
14252;DHT22;7210;51.502;10.722;2022-11-22T08:51:02;1.70;99.90
14252;DHT22;7210;51.502;10.722;2022-11-22T08:53:32;1.80;99.90
14252;DHT22;7210;51.502;10.722;2022-11-22T08:56:02;1.80;99.90
14252;DHT22;7210;51.502;10.722;2022-11-22T08:58:32;1.80;99.90
14252;DHT22;7210;51.502;10.722;2022-11-22T09:01:03;1.90;99.90
14252;DHT22;7210;51.502;10.722;2022-11-22T09:03:32;1.90;99.90
14252;DHT22;7210;51.502;10.722;2022-11-22T09:06:01;2.00;99.90
14252;DHT22;7210;51.502;10.722;2022-11-22T09:08:30;2.00;99.90
14252;DHT22;7210;51.502;10.722;2022-11-22T09:10:59;2.10;99.90
14252;DHT22;7210;51.502;10.722;2022-11-22T09:13:27;2.10;99.90
14252;DHT22;7210;51.502;10.722;2022-11-22T09:16:00;2.20;99.90
14252;DHT22;7210;51.502;10.722;2022-11-22T09:18:27;2.20;99.90
14252;DHT22;7210;51.502;10.722;2022-11-22T09:21:18;2.30;99.90
14252;DHT22;7210;51.502;10.722;2022-11-22T09:23:48;2.30;99.90
14252;DHT22;7210;51.502;10.722;2022-11-22T09:26:19;2.30;99.90
14252;DHT22;7210;51.502;10.722;2022-11-22T09:28:49;2.40;99.90
14252;DHT22;7210;51.502;10.722;2022-11-22T09:31:22;2.40;99.90
14252;DHT22;7210;51.502;10.722;2022-11-22T09:33:50;2.40;99.90
14252;DHT22;7210;51.502;10.722;2022-11-22T09:36:19;2.50;99.90
14252;DHT22;7210;51.502;10.722;2022-11-22T09:38:48;2.50;99.90
14252;DHT22;7210;51.502;10.722;2022-11-22T09:41:32;2.50;99.90
14252;DHT22;7210;51.502;10.722;2022-11-22T09:44:16;2.60;99.90
14252;DHT22;7210;51.502;10.722;2022-11-22T09:46:55;2.60;99.90
14252;DHT22;7210;51.502;10.722;2022-11-22T09:49:35;2.50;99.90
14252;DHT22;7210;51.502;10.722;2022-11-22T09:52:14;2.60;99.90
14252;DHT22;7210;51.502;10.722;2022-11-22T09:54:52;2.70;99.90
14252;DHT22;7210;51.502;10.722;2022-11-22T09:57:26;2.80;99.90
14252;DHT22;7210;51.502;10.722;2022-11-22T10:00:02;2.80;99.90
14252;DHT22;7210;51.502;10.722;2022-11-22T10:02:42;2.90;99.90
14252;DHT22;7210;51.502;10.722;2022-11-22T10:05:20;3.00;99.90
14252;DHT22;7210;51.502;10.722;2022-11-22T10:07:55;3.00;99.90
14252;DHT22;7210;51.502;10.722;2022-11-22T10:10:33;3.00;99.90
14252;DHT22;7210;51.502;10.722;2022-11-22T10:13:12;3.00;99.90
14252;DHT22;7210;51.502;10.722;2022-11-22T10:15:53;3.10;99.90
14252;DHT22;7210;51.502;10.722;2022-11-22T10:18:33;3.10;99.90
14252;DHT22;7210;51.502;10.722;2022-11-22T10:21:08;3.10;99.90
14252;DHT22;7210;51.502;10.722;2022-11-22T10:23:39;3.10;99.90
14252;DHT22;7210;51.502;10.722;2022-11-22T10:26:18;3.10;99.90
14252;DHT22;7210;51.502;10.722;2022-11-22T10:29:07;3.10;99.90
14252;DHT22;7210;51.502;10.722;2022-11-22T10:31:53;3.10;99.90
14252;DHT22;7210;51.502;10.722;2022-11-22T10:34:43;3.10;99.90
14252;DHT22;7210;51.502;10.722;2022-11-22T10:37:25;3.10;99.90
14252;DHT22;7210;51.502;10.722;2022-11-22T10:40:12;3.10;99.90
14252;DHT22;7210;51.502;10.722;2022-11-22T10:43:00;3.20;99.90
14252;DHT22;7210;51.502;10.722;2022-11-22T10:45:41;3.30;99.90
14252;DHT22;7210;51.502;10.722;2022-11-22T10:48:21;3.30;99.90
14252;DHT22;7210;51.502;10.722;2022-11-22T10:51:08;3.30;99.90
14252;DHT22;7210;51.502;10.722;2022-11-22T10:53:53;3.30;99.90
14252;DHT22;7210;51.502;10.722;2022-11-22T10:56:34;3.40;99.90
14252;DHT22;7210;51.502;10.722;2022-11-22T10:59:23;3.40;99.90
14252;DHT22;7210;51.502;10.722;2022-11-22T11:02:32;3.50;99.90
14252;DHT22;7210;51.502;10.722;2022-11-22T11:05:16;3.60;99.90
14252;DHT22;7210;51.502;10.722;2022-11-22T11:07:52;3.60;99.90
14252;DHT22;7210;51.502;10.722;2022-11-22T11:10:22;3.70;99.90
14252;DHT22;7210;51.502;10.722;2022-11-22T11:12:58;3.70;99.90
14252;DHT22;7210;51.502;10.722;2022-11-22T11:15:34;3.70;99.90
14252;DHT22;7210;51.502;10.722;2022-11-22T11:18:11;3.70;99.90
14252;DHT22;7210;51.502;10.722;2022-11-22T11:20:43;3.70;99.90
14252;DHT22;7210;51.502;10.722;2022-11-22T11:23:13;3.70;99.90
14252;DHT22;7210;51.502;10.722;2022-11-22T11:25:43;3.70;99.90
14252;DHT22;7210;51.502;10.722;2022-11-22T11:28:16;3.70;99.90
14252;DHT22;7210;51.502;10.722;2022-11-22T11:30:47;3.70;99.90
14252;DHT22;7210;51.502;10.722;2022-11-22T11:33:25;3.80;99.90
14252;DHT22;7210;51.502;10.722;2022-11-22T11:36:01;3.70;99.90
14252;DHT22;7210;51.502;10.722;2022-11-22T11:38:48;3.60;99.90
14252;DHT22;7210;51.502;10.722;2022-11-22T11:41:24;3.70;99.90
14252;DHT22;7210;51.502;10.722;2022-11-22T11:43:55;3.70;99.90
14252;DHT22;7210;51.502;10.722;2022-11-22T11:46:24;3.70;99.90
14252;DHT22;7210;51.502;10.722;2022-11-22T11:48:53;3.70;99.90
14252;DHT22;7210;51.502;10.722;2022-11-22T11:51:29;3.60;99.90
14252;DHT22;7210;51.502;10.722;2022-11-22T11:54:08;3.60;99.90
14252;DHT22;7210;51.502;10.722;2022-11-22T11:56:45;3.60;99.90
14252;DHT22;7210;51.502;10.722;2022-11-22T11:59:16;3.50;99.90
14252;DHT22;7210;51.502;10.722;2022-11-22T12:01:52;3.50;99.90
14252;DHT22;7210;51.502;10.722;2022-11-22T12:04:25;3.50;99.90
14252;DHT22;7210;51.502;10.722;2022-11-22T12:06:56;3.50;99.90
14252;DHT22;7210;51.502;10.722;2022-11-22T12:09:33;3.50;99.90
14252;DHT22;7210;51.502;10.722;2022-11-22T12:12:11;3.60;99.90
14252;DHT22;7210;51.502;10.722;2022-11-22T12:14:50;3.60;99.90
14252;DHT22;7210;51.502;10.722;2022-11-22T12:17:30;3.60;99.90
14252;DHT22;7210;51.502;10.722;2022-11-22T12:20:05;3.60;99.90
14252;DHT22;7210;51.502;10.722;2022-11-22T12:22:47;3.70;99.90
14252;DHT22;7210;51.502;10.722;2022-11-22T12:25:30;3.70;99.90
14252;DHT22;7210;51.502;10.722;2022-11-22T12:28:10;3.70;99.90
14252;DHT22;7210;51.502;10.722;2022-11-22T12:30:43;3.70;99.90
14252;DHT22;7210;51.502;10.722;2022-11-22T12:33:19;3.60;99.90
14252;DHT22;7210;51.502;10.722;2022-11-22T12:35:53;3.70;99.90
14252;DHT22;7210;51.502;10.722;2022-11-22T12:38:25;3.70;99.90
14252;DHT22;7210;51.502;10.722;2022-11-22T12:41:01;3.70;99.90
14252;DHT22;7210;51.502;10.722;2022-11-22T12:43:35;3.70;99.90
14252;DHT22;7210;51.502;10.722;2022-11-22T12:46:10;3.60;99.90
14252;DHT22;7210;51.502;10.722;2022-11-22T12:48:46;3.60;99.90
14252;DHT22;7210;51.502;10.722;2022-11-22T12:51:22;3.50;99.90
14252;DHT22;7210;51.502;10.722;2022-11-22T12:53:58;3.40;99.90
14252;DHT22;7210;51.502;10.722;2022-11-22T12:56:35;3.40;99.90
14252;DHT22;7210;51.502;10.722;2022-11-22T12:59:18;3.30;99.90
14252;DHT22;7210;51.502;10.722;2022-11-22T13:01:57;3.40;99.90
14252;DHT22;7210;51.502;10.722;2022-11-22T13:04:37;3.60;99.90
14252;DHT22;7210;51.502;10.722;2022-11-22T13:07:18;3.80;99.90
14252;DHT22;7210;51.502;10.722;2022-11-22T13:10:00;3.90;99.90
14252;DHT22;7210;51.502;10.722;2022-11-22T13:12:35;3.90;99.90
14252;DHT22;7210;51.502;10.722;2022-11-22T13:15:11;4.00;99.90
14252;DHT22;7210;51.502;10.722;2022-11-22T13:17:44;4.00;99.90
14252;DHT22;7210;51.502;10.722;2022-11-22T13:20:16;4.10;99.90
14252;DHT22;7210;51.502;10.722;2022-11-22T13:22:56;4.00;99.90
14252;DHT22;7210;51.502;10.722;2022-11-22T13:25:41;4.10;99.90
14252;DHT22;7210;51.502;10.722;2022-11-22T13:28:19;4.10;99.90
14252;DHT22;7210;51.502;10.722;2022-11-22T13:31:07;4.20;99.90
14252;DHT22;7210;51.502;10.722;2022-11-22T13:33:51;4.10;99.90
14252;DHT22;7210;51.502;10.722;2022-11-22T13:39:15;4.10;99.90
14252;DHT22;7210;51.502;10.722;2022-11-22T13:41:51;4.00;99.90
14252;DHT22;7210;51.502;10.722;2022-11-22T13:44:35;4.00;99.90
14252;DHT22;7210;51.502;10.722;2022-11-22T13:47:41;3.90;99.90
14252;DHT22;7210;51.502;10.722;2022-11-22T13:53:28;3.90;99.90
14252;DHT22;7210;51.502;10.722;2022-11-22T13:56:47;3.80;99.90
14252;DHT22;7210;51.502;10.722;2022-11-22T13:59:25;3.70;99.90
14252;DHT22;7210;51.502;10.722;2022-11-22T14:02:02;3.50;99.90
14252;DHT22;7210;51.502;10.722;2022-11-22T14:04:41;3.40;99.90
14252;DHT22;7210;51.502;10.722;2022-11-22T14:07:35;3.30;99.90
14252;DHT22;7210;51.502;10.722;2022-11-22T14:10:26;3.20;99.90
14252;DHT22;7210;51.502;10.722;2022-11-22T14:16:27;3.10;99.90
14252;DHT22;7210;51.502;10.722;2022-11-22T14:19:26;3.00;99.90
14252;DHT22;7210;51.502;10.722;2022-11-22T14:22:21;2.90;99.90
14252;DHT22;7210;51.502;10.722;2022-11-22T14:25:14;2.80;99.90
14252;DHT22;7210;51.502;10.722;2022-11-22T14:28:00;2.70;99.90
14252;DHT22;7210;51.502;10.722;2022-11-22T14:30:41;2.60;99.90
14252;DHT22;7210;51.502;10.722;2022-11-22T14:33:14;2.50;99.90
14252;DHT22;7210;51.502;10.722;2022-11-22T14:36:14;2.50;99.90
14252;DHT22;7210;51.502;10.722;2022-11-22T14:38:43;2.40;99.90
14252;DHT22;7210;51.502;10.722;2022-11-22T14:41:41;2.30;99.90
14252;DHT22;7210;51.502;10.722;2022-11-22T14:44:16;2.20;99.90
14252;DHT22;7210;51.502;10.722;2022-11-22T14:46:52;2.20;99.90
14252;DHT22;7210;51.502;10.722;2022-11-22T14:49:36;2.20;99.90
14252;DHT22;7210;51.502;10.722;2022-11-22T14:52:20;2.20;99.90
14252;DHT22;7210;51.502;10.722;2022-11-22T14:54:52;2.20;99.90
14252;DHT22;7210;51.502;10.722;2022-11-22T14:57:24;2.20;99.90
14252;DHT22;7210;51.502;10.722;2022-11-22T15:00:12;2.10;99.90
14252;DHT22;7210;51.502;10.722;2022-11-22T15:06:14;2.00;99.90
14252;DHT22;7210;51.502;10.722;2022-11-22T15:08:57;1.90;99.90
14252;DHT22;7210;51.502;10.722;2022-11-22T15:11:58;1.80;99.90
14252;DHT22;7210;51.502;10.722;2022-11-22T15:18:10;1.60;99.90
14252;DHT22;7210;51.502;10.722;2022-11-22T15:20:43;1.50;99.90
14252;DHT22;7210;51.502;10.722;2022-11-22T15:23:16;1.40;99.90
14252;DHT22;7210;51.502;10.722;2022-11-22T15:25:48;1.30;99.90
14252;DHT22;7210;51.502;10.722;2022-11-22T15:28:24;1.30;99.90
14252;DHT22;7210;51.502;10.722;2022-11-22T15:30:56;1.30;99.90
14252;DHT22;7210;51.502;10.722;2022-11-22T15:33:28;1.40;99.90
14252;DHT22;7210;51.502;10.722;2022-11-22T15:36:04;1.40;99.90
14252;DHT22;7210;51.502;10.722;2022-11-22T15:38:40;1.30;99.90
14252;DHT22;7210;51.502;10.722;2022-11-22T15:41:18;1.20;99.90
14252;DHT22;7210;51.502;10.722;2022-11-22T15:43:48;1.20;99.90
14252;DHT22;7210;51.502;10.722;2022-11-22T15:46:18;1.20;99.90
14252;DHT22;7210;51.502;10.722;2022-11-22T15:48:49;1.20;99.90
14252;DHT22;7210;51.502;10.722;2022-11-22T15:51:23;1.20;99.90
14252;DHT22;7210;51.502;10.722;2022-11-22T15:54:06;1.20;99.90
14252;DHT22;7210;51.502;10.722;2022-11-22T15:56:50;1.20;99.90
14252;DHT22;7210;51.502;10.722;2022-11-22T15:59:26;1.20;99.90
14252;DHT22;7210;51.502;10.722;2022-11-22T16:01:57;1.20;99.90
14252;DHT22;7210;51.502;10.722;2022-11-22T16:04:28;1.30;99.90
14252;DHT22;7210;51.502;10.722;2022-11-22T16:06:59;1.40;99.90
14252;DHT22;7210;51.502;10.722;2022-11-22T16:09:31;1.30;99.90
14252;DHT22;7210;51.502;10.722;2022-11-22T16:12:03;1.40;99.90
14252;DHT22;7210;51.502;10.722;2022-11-22T16:14:47;1.30;99.90
14252;DHT22;7210;51.502;10.722;2022-11-22T16:17:26;1.40;99.90
14252;DHT22;7210;51.502;10.722;2022-11-22T16:20:23;1.40;99.90
14252;DHT22;7210;51.502;10.722;2022-11-22T16:23:15;1.30;99.90
14252;DHT22;7210;51.502;10.722;2022-11-22T16:25:52;1.30;99.90
14252;DHT22;7210;51.502;10.722;2022-11-22T16:28:34;1.40;99.90
14252;DHT22;7210;51.502;10.722;2022-11-22T16:31:05;1.30;99.90
14252;DHT22;7210;51.502;10.722;2022-11-22T16:33:42;1.30;99.90
14252;DHT22;7210;51.502;10.722;2022-11-22T16:36:11;1.30;99.90
14252;DHT22;7210;51.502;10.722;2022-11-22T16:38:40;1.30;99.90
14252;DHT22;7210;51.502;10.722;2022-11-22T16:41:12;1.40;99.90
14252;DHT22;7210;51.502;10.722;2022-11-22T16:43:46;1.30;99.90
14252;DHT22;7210;51.502;10.722;2022-11-22T16:46:16;1.30;99.90